Time;durP1;ratioP1;P1;durP2;ratioP2;P2;SDS_P1;SDS_P2;PMS_P1;PMS_P2;Temp;Humidity;BMP_temperature;BMP_pressure;BME280_temperature;BME280_humidity;BME280_pressure;Samples;Min_cycle;Max_cycle;Signal;HPM_P1;HPM_P2
2022/07/26 00:00:12;;;;;;;9.52;5.53;;;19.20;99.90;;;;;;5075521;28;20428;-72
2022/07/26 00:02:40;;;;;;;9.70;5.35;;;19.20;99.90;;;;;;5110087;28;20050;-73
2022/07/26 00:05:15;;;;;;;8.82;5.60;;;19.20;99.90;;;;;;5114059;28;20040;-72
2022/07/26 00:07:42;;;;;;;7.97;5.65;;;19.10;99.90;;;;;;5106545;28;20447;-72
2022/07/26 00:10:10;;;;;;;8.90;5.07;;;19.10;99.90;;;;;;5104573;28;20338;-72
2022/07/26 00:12:37;;;;;;;9.57;5.60;;;19.10;99.90;;;;;;5112697;28;20559;-72
2022/07/26 00:15:07;;;;;;;12.77;6.00;;;19.10;99.90;;;;;;5093047;28;20044;-72
2022/07/26 00:17:34;;;;;;;12.10;5.88;;;19.10;99.90;;;;;;5089662;28;20044;-72
2022/07/26 00:20:01;;;;;;;8.60;5.30;;;19.10;99.90;;;;;;5092625;28;20561;-71
2022/07/26 00:22:34;;;;;;;9.00;6.10;;;19.10;99.90;;;;;;5092958;28;20037;-72
2022/07/26 00:25:03;;;;;;;9.43;5.60;;;19.10;99.90;;;;;;5090385;28;20101;-72
2022/07/26 00:27:31;;;;;;;13.00;5.30;;;19.10;99.90;;;;;;5104958;28;20046;-72
2022/07/26 00:29:58;;;;;;;8.70;5.65;;;19.10;99.90;;;;;;5112780;28;20047;-72
2022/07/26 00:32:25;;;;;;;10.18;6.15;;;19.10;99.90;;;;;;5113462;28;20035;-71
2022/07/26 00:34:53;;;;;;;8.90;6.18;;;19.00;99.90;;;;;;5088229;28;20083;-72
2022/07/26 00:37:19;;;;;;;;;;;19.00;99.90;;;;;;5085757;28;20044;-72
2022/07/26 00:39:47;;;;;;;10.73;6.03;;;19.00;99.90;;;;;;5072622;28;19920;-72
2022/07/26 00:42:15;;;;;;;10.85;5.82;;;19.00;99.90;;;;;;5090601;28;20043;-72
2022/07/26 00:44:44;;;;;;;7.50;5.15;;;18.90;99.90;;;;;;5094154;28;20036;-70
2022/07/26 00:47:11;;;;;;;15.32;5.90;;;19.00;99.90;;;;;;5062050;28;20041;-71
2022/07/26 00:49:39;;;;;;;11.07;5.97;;;18.90;99.90;;;;;;5063875;28;20080;-70
2022/07/26 00:52:08;;;;;;;11.80;6.20;;;18.90;99.90;;;;;;5083819;28;20036;-71
2022/07/26 00:54:36;;;;;;;13.55;6.68;;;18.90;99.90;;;;;;5092706;28;20048;-70
2022/07/26 00:57:04;;;;;;;11.35;7.00;;;18.90;99.90;;;;;;5092654;28;20047;-70
2022/07/26 00:59:31;;;;;;;12.63;6.68;;;18.90;99.90;;;;;;5098215;28;20776;-72
2022/07/26 01:01:58;;;;;;;13.10;7.50;;;18.90;99.90;;;;;;5081751;28;20036;-73
2022/07/26 01:04:26;;;;;;;12.50;7.05;;;18.90;99.90;;;;;;5091953;28;20078;-74
2022/07/26 01:06:53;;;;;;;12.15;6.80;;;18.90;99.90;;;;;;5090835;28;20051;-74
2022/07/26 01:09:20;;;;;;;;;;;19.00;99.90;;;;;;5091960;28;20032;-74
2022/07/26 01:11:47;;;;;;;11.95;6.35;;;18.90;99.90;;;;;;5076726;28;20019;-74
2022/07/26 01:14:15;;;;;;;13.57;8.75;;;18.90;99.90;;;;;;5070868;28;20076;-74
2022/07/26 01:16:42;;;;;;;12.25;7.03;;;18.90;99.90;;;;;;5081415;28;20039;-74
2022/07/26 01:19:09;;;;;;;15.40;7.80;;;18.90;99.90;;;;;;5087469;28;20408;-74
2022/07/26 01:21:36;;;;;;;18.45;7.95;;;18.90;99.90;;;;;;5071498;28;20088;-73
2022/07/26 01:24:04;;;;;;;14.85;7.95;;;18.90;99.90;;;;;;5072238;28;20725;-73
2022/07/26 01:26:31;;;;;;;11.98;7.63;;;18.80;99.90;;;;;;5094480;28;20484;-73
2022/07/26 01:28:58;;;;;;;21.33;7.88;;;18.80;99.90;;;;;;5073495;28;20161;-72
2022/07/26 01:31:25;;;;;;;24.50;8.57;;;18.70;99.90;;;;;;5091749;28;20042;-72
2022/07/26 01:33:52;;;;;;;15.48;7.60;;;18.80;99.90;;;;;;5097942;28;20044;-73
2022/07/26 01:36:19;;;;;;;18.15;7.63;;;18.70;99.90;;;;;;5105823;28;20051;-73
2022/07/26 01:38:46;;;;;;;9.70;6.90;;;18.70;99.90;;;;;;5112123;28;20047;-73
2022/07/26 01:41:13;;;;;;;15.60;7.57;;;18.70;99.90;;;;;;5111993;28;20054;-73
2022/07/26 01:43:40;;;;;;;12.27;7.80;;;18.60;99.90;;;;;;5098169;28;20050;-72
2022/07/26 01:46:07;;;;;;;12.35;7.43;;;18.60;99.90;;;;;;5095693;28;20050;-73
2022/07/26 01:48:35;;;;;;;12.27;7.38;;;18.60;99.90;;;;;;5112032;28;20108;-73
2022/07/26 01:51:02;;;;;;;15.85;8.05;;;18.60;99.90;;;;;;5105829;28;20093;-73
2022/07/26 01:53:29;;;;;;;;;;;18.70;99.90;;;;;;5103856;28;20040;-73
2022/07/26 01:55:56;;;;;;;15.00;7.70;;;18.70;99.90;;;;;;5111987;28;19926;-74
2022/07/26 01:58:23;;;;;;;14.10;7.97;;;18.80;99.90;;;;;;5112103;28;20047;-74
2022/07/26 02:00:50;;;;;;;12.00;7.03;;;18.80;99.90;;;;;;5104509;28;20123;-73
2022/07/26 02:03:17;;;;;;;17.02;8.13;;;18.70;99.90;;;;;;5103335;28;20142;-73
2022/07/26 02:05:44;;;;;;;12.60;7.10;;;18.70;99.90;;;;;;5111727;28;20042;-73
2022/07/26 02:08:11;;;;;;;11.85;7.90;;;18.60;99.90;;;;;;5111903;28;20046;-73
2022/07/26 02:13:24;;;;;;;11.25;6.38;;;18.60;99.90;;;;;;5071047;28;20045;-72
2022/07/26 02:15:51;;;;;;;10.85;6.47;;;18.60;99.90;;;;;;5073944;28;20072;-73
2022/07/26 02:18:18;;;;;;;13.70;6.78;;;18.50;99.90;;;;;;5075258;28;20037;-73
2022/07/26 02:20:45;;;;;;;15.00;6.93;;;18.40;99.90;;;;;;5101123;28;20058;-73
2022/07/26 02:23:12;;;;;;;10.13;6.00;;;18.40;99.90;;;;;;5116133;28;20480;-72
2022/07/26 02:25:38;;;;;;;8.52;5.78;;;18.40;99.90;;;;;;5115682;28;20089;-73
2022/07/26 02:28:06;;;;;;;8.27;5.10;;;18.40;99.90;;;;;;5113626;28;20035;-72
2022/07/26 02:30:32;;;;;;;9.35;5.15;;;18.50;99.90;;;;;;5080583;28;20528;-72
2022/07/26 02:32:59;;;;;;;8.90;5.43;;;18.50;99.90;;;;;;5114795;28;20059;-73
2022/07/26 02:35:26;;;;;;;9.15;4.97;;;18.40;99.90;;;;;;5115417;28;20081;-73
2022/07/26 02:37:53;;;;;;;6.75;4.18;;;18.50;99.90;;;;;;5113144;28;20051;-73
2022/07/26 02:40:20;;;;;;;9.00;3.72;;;18.50;99.90;;;;;;5103034;28;20051;-73
2022/07/26 02:42:47;;;;;;;5.47;3.97;;;18.60;99.90;;;;;;5113059;28;20492;-72
2022/07/26 02:45:13;;;;;;;8.40;4.72;;;18.60;99.90;;;;;;5115338;28;20088;-72
2022/07/26 02:47:49;;;;;;;6.13;4.22;;;18.70;99.90;;;;;;5103054;28;20396;-72
2022/07/26 02:50:17;;;;;;;6.97;4.50;;;18.70;99.90;;;;;;5115038;28;20039;-72
2022/07/26 02:52:47;;;;;;;7.53;5.32;;;18.70;99.90;;;;;;5115474;28;20050;-73
2022/07/26 02:55:16;;;;;;;8.90;5.20;;;18.60;99.90;;;;;;5106870;28;20114;-72
2022/07/26 02:57:43;;;;;;;9.88;4.88;;;18.60;99.90;;;;;;5111939;28;20047;-71
2022/07/26 03:00:15;;;;;;;8.80;4.72;;;18.60;99.90;;;;;;5114772;28;20491;-71
2022/07/26 03:02:42;;;;;;;6.55;4.00;;;18.60;99.90;;;;;;5115045;28;20044;-71
2022/07/26 03:05:09;;;;;;;8.52;4.05;;;18.60;99.90;;;;;;5102021;28;20047;-71
2022/07/26 03:07:37;;;;;;;9.02;4.00;;;18.60;99.90;;;;;;5110920;28;20039;-71
2022/07/26 03:10:05;;;;;;;7.30;4.20;;;18.60;99.90;;;;;;5114602;28;20046;-71
2022/07/26 03:12:32;;;;;;;5.57;3.42;;;18.60;99.90;;;;;;5101949;28;20481;-71
2022/07/26 03:14:59;;;;;;;5.22;3.72;;;18.70;99.90;;;;;;5104629;28;20047;-72
2022/07/26 03:17:26;;;;;;;7.43;3.65;;;18.70;99.90;;;;;;5114957;28;20085;-72
2022/07/26 03:19:52;;;;;;;8.35;4.07;;;18.60;99.90;;;;;;5114093;28;20039;-72
2022/07/26 03:22:19;;;;;;;9.73;4.07;;;18.60;99.90;;;;;;5106791;28;20032;-72
2022/07/26 03:24:46;;;;;;;7.95;4.30;;;18.60;99.90;;;;;;5111835;28;20066;-72
2022/07/26 03:27:13;;;;;;;8.82;4.45;;;18.70;99.90;;;;;;5114549;28;20040;-72
2022/07/26 03:29:40;;;;;;;7.90;4.72;;;18.60;99.90;;;;;;5096954;28;20044;-72
2022/07/26 03:32:07;;;;;;;7.38;4.45;;;18.60;99.90;;;;;;5089112;28;20035;-72
2022/07/26 03:34:34;;;;;;;8.20;4.15;;;18.50;99.90;;;;;;5096639;28;20075;-72
2022/07/26 03:37:01;;;;;;;10.68;4.32;;;18.50;99.90;;;;;;5104463;28;20040;-73
2022/07/26 03:39:28;;;;;;;7.00;4.18;;;18.50;99.90;;;;;;5095530;28;20044;-72
2022/07/26 03:41:55;;;;;;;6.95;4.75;;;18.50;99.90;;;;;;5072961;28;20121;-73
2022/07/26 03:44:22;;;;;;;13.23;5.70;;;18.50;99.90;;;;;;5073885;28;20916;-73
2022/07/26 03:46:49;;;;;;;9.63;6.03;;;18.50;99.90;;;;;;5090365;28;20146;-72
2022/07/26 03:49:16;;;;;;;9.70;5.68;;;18.40;99.90;;;;;;5076342;28;20102;-74
2022/07/26 03:51:43;;;;;;;8.60;5.85;;;18.40;99.90;;;;;;5086714;28;20036;-72
2022/07/26 03:54:10;;;;;;;8.20;5.35;;;18.30;99.90;;;;;;5084909;28;20058;-72
2022/07/26 03:56:39;;;;;;;10.20;5.55;;;18.30;99.90;;;;;;5094003;28;20040;-73
2022/07/26 03:59:08;;;;;;;8.45;4.90;;;18.30;99.90;;;;;;5076009;28;20072;-73
2022/07/26 04:01:40;;;;;;;7.53;4.95;;;18.30;99.90;;;;;;5072578;28;20036;-73
2022/07/26 04:04:08;;;;;;;7.20;5.07;;;18.40;99.90;;;;;;5078852;28;20040;-74
2022/07/26 04:06:38;;;;;;;8.98;6.05;;;18.40;99.90;;;;;;5093943;28;20047;-73
2022/07/26 04:09:06;;;;;;;9.18;5.90;;;18.20;99.90;;;;;;5086918;28;20123;-74
2022/07/26 04:11:34;;;;;;;10.80;5.90;;;18.30;99.90;;;;;;5082744;28;20056;-73
2022/07/26 04:14:00;;;;;;;;;;;18.30;99.90;;;;;;5081203;28;20044;-72
2022/07/26 04:16:27;;;;;;;10.25;6.15;;;18.30;99.90;;;;;;5084091;28;19927;-72
2022/07/26 04:18:54;;;;;;;9.43;6.22;;;18.30;99.90;;;;;;5072800;28;20082;-73
2022/07/26 04:21:21;;;;;;;10.98;6.38;;;18.40;99.90;;;;;;5080783;28;20043;-71
2022/07/26 04:23:49;;;;;;;11.38;6.03;;;18.40;99.90;;;;;;5086661;28;20040;-70
2022/07/26 04:26:20;;;;;;;8.93;6.05;;;18.30;99.90;;;;;;5055769;28;20035;-70
2022/07/26 04:28:47;;;;;;;9.70;6.30;;;18.40;99.90;;;;;;5086213;28;20072;-71
2022/07/26 04:32:04;;;;;;;13.52;6.85;;;18.40;99.90;;;;;;5095594;22;20048;-59
2022/07/26 04:34:31;;;;;;;9.13;5.45;;;18.40;99.90;;;;;;5065713;28;20032;-61
2022/07/26 04:36:58;;;;;;;12.30;7.05;;;18.40;99.90;;;;;;5068842;28;20119;-61
2022/07/26 04:39:25;;;;;;;7.45;4.63;;;18.40;99.90;;;;;;5057593;28;20036;-61
2022/07/26 04:41:51;;;;;;;7.35;4.90;;;18.40;99.90;;;;;;5061849;28;20045;-61
2022/07/26 04:44:18;;;;;;;6.30;4.18;;;18.40;99.90;;;;;;5072695;28;20415;-61
2022/07/26 04:46:45;;;;;;;7.68;4.70;;;18.30;99.90;;;;;;5065090;28;20064;-61
2022/07/26 04:49:12;;;;;;;7.50;4.57;;;18.30;99.90;;;;;;5063778;28;20119;-61
2022/07/26 04:51:39;;;;;;;7.03;4.50;;;18.40;99.90;;;;;;5071681;28;20127;-60
2022/07/26 04:54:06;;;;;;;7.85;4.97;;;18.40;99.90;;;;;;5068530;28;20651;-61
2022/07/26 04:56:33;;;;;;;;;;;18.40;99.90;;;;;;5065445;28;20044;-60
2022/07/26 04:59:00;;;;;;;7.45;4.50;;;18.50;99.90;;;;;;5052734;28;19921;-60
2022/07/26 05:01:26;;;;;;;6.70;5.03;;;18.50;99.90;;;;;;5051050;28;20493;-61
2022/07/26 05:03:53;;;;;;;8.57;5.05;;;18.50;99.90;;;;;;5062936;28;20071;-60
2022/07/26 05:06:20;;;;;;;9.68;5.65;;;18.50;99.90;;;;;;5071332;28;20059;-60
2022/07/26 05:08:48;;;;;;;9.65;6.22;;;18.60;99.90;;;;;;5071770;28;20044;-60
2022/07/26 05:11:15;;;;;;;9.13;5.90;;;18.60;99.90;;;;;;5062150;28;20033;-62
2022/07/26 05:13:41;;;;;;;12.57;6.25;;;18.60;99.90;;;;;;5068582;28;20409;-62
2022/07/26 05:16:08;;;;;;;11.00;6.57;;;18.60;99.90;;;;;;5071651;28;20052;-61
2022/07/26 05:18:40;;;;;;;10.57;6.22;;;18.60;99.90;;;;;;5065843;28;20443;-61
2022/07/26 05:21:15;;;;;;;9.37;6.10;;;18.70;99.90;;;;;;5064425;28;20040;-61
2022/07/26 05:23:42;;;;;;;8.10;5.40;;;18.60;99.90;;;;;;5071928;28;20344;-60
2022/07/26 05:26:11;;;;;;;11.20;6.13;;;18.50;99.90;;;;;;5071211;28;20036;-61
2022/07/26 05:28:38;;;;;;;9.50;5.65;;;18.50;99.90;;;;;;5059719;28;20052;-61
2022/07/26 05:31:05;;;;;;;7.25;4.43;;;18.60;99.90;;;;;;5051116;28;20037;-61
2022/07/26 05:33:32;;;;;;;10.77;4.55;;;18.60;99.90;;;;;;5051718;28;20128;-61
2022/07/26 05:35:59;;;;;;;10.48;5.05;;;18.70;99.90;;;;;;5054083;28;20033;-61
2022/07/26 05:38:26;;;;;;;8.18;5.10;;;18.70;99.90;;;;;;5065181;28;20047;-61
2022/07/26 05:40:53;;;;;;;6.93;4.78;;;18.70;99.90;;;;;;5069358;28;20120;-61
2022/07/26 05:43:20;;;;;;;9.02;5.45;;;18.70;99.90;;;;;;5071505;28;20111;-61
2022/07/26 05:45:46;;;;;;;7.93;5.22;;;18.80;99.90;;;;;;5069153;28;20037;-61
2022/07/26 05:48:13;;;;;;;10.10;5.65;;;18.60;99.90;;;;;;5063098;28;20116;-60
2022/07/26 05:50:40;;;;;;;9.45;5.75;;;18.70;99.90;;;;;;5069561;28;20555;-61
2022/07/26 05:53:07;;;;;;;7.25;5.40;;;18.70;99.90;;;;;;5069978;28;20052;-61
2022/07/26 05:55:34;;;;;;;;;;;18.60;99.90;;;;;;5063922;28;20128;-61
2022/07/26 05:58:01;;;;;;;9.05;5.63;;;18.60;99.90;;;;;;5062221;28;20088;-61
2022/07/26 06:00:28;;;;;;;9.88;6.50;;;18.60;99.90;;;;;;5070342;28;20059;-61
2022/07/26 06:02:55;;;;;;;;;;;18.60;99.90;;;;;;5071509;28;20048;-61
2022/07/26 06:05:21;;;;;;;9.20;5.97;;;18.60;99.90;;;;;;5061497;28;20304;-61
2022/07/26 06:07:48;;;;;;;9.48;5.82;;;18.60;99.90;;;;;;5068555;28;20052;-61
2022/07/26 06:10:15;;;;;;;10.55;6.32;;;18.60;99.90;;;;;;5070718;28;20045;-61
2022/07/26 06:12:42;;;;;;;10.27;6.05;;;18.60;99.90;;;;;;5067924;28;20045;-61
2022/07/26 06:15:09;;;;;;;13.65;6.80;;;18.60;99.90;;;;;;5062723;28;20056;-61
2022/07/26 06:17:42;;;;;;;8.27;5.78;;;18.50;99.90;;;;;;5070958;28;20079;-61
2022/07/26 06:20:09;;;;;;;7.28;5.50;;;18.50;99.90;;;;;;5070733;28;20044;-60
2022/07/26 06:22:36;;;;;;;8.07;5.28;;;18.50;99.90;;;;;;5069674;28;20063;-61
2022/07/26 06:25:03;;;;;;;6.30;4.63;;;18.40;99.90;;;;;;5062773;28;20052;-61
2022/07/26 06:27:31;;;;;;;8.95;5.45;;;18.50;99.90;;;;;;5071052;28;20059;-61
2022/07/26 06:29:58;;;;;;;9.20;5.10;;;18.50;99.90;;;;;;5067564;28;20047;-61
2022/07/26 06:32:24;;;;;;;8.20;5.00;;;18.50;99.90;;;;;;5062597;28;20098;-61
2022/07/26 06:34:51;;;;;;;10.40;4.80;;;18.60;99.90;;;;;;5070991;28;20044;-61
2022/07/26 06:37:18;;;;;;;7.43;5.43;;;18.60;99.90;;;;;;5066793;28;20504;-61
2022/07/26 06:39:45;;;;;;;7.97;4.75;;;18.60;99.90;;;;;;5059607;28;20044;-61
2022/07/26 06:42:11;;;;;;;7.45;4.80;;;18.60;99.90;;;;;;5070330;28;20056;-61
2022/07/26 06:44:38;;;;;;;7.97;5.35;;;18.60;99.90;;;;;;5070612;28;20123;-60
2022/07/26 06:47:05;;;;;;;7.20;4.55;;;18.60;99.90;;;;;;5067643;28;20041;-61
2022/07/26 06:49:32;;;;;;;7.30;3.97;;;18.60;99.90;;;;;;5066124;28;20052;-61
2022/07/26 06:51:59;;;;;;;8.20;3.83;;;18.50;99.90;;;;;;5070850;28;20072;-61
2022/07/26 06:54:25;;;;;;;6.85;3.97;;;18.50;99.90;;;;;;5052204;28;20047;-61
2022/07/26 06:56:52;;;;;;;5.50;3.72;;;18.50;99.90;;;;;;5062369;28;20048;-60
2022/07/26 06:59:19;;;;;;;6.15;4.13;;;18.50;99.90;;;;;;5070725;28;20452;-61
2022/07/26 07:01:46;;;;;;;6.95;4.15;;;18.40;99.90;;;;;;5069279;28;20045;-61
2022/07/26 07:04:25;;;;;;;5.65;3.70;;;18.50;99.90;;;;;;5065788;28;20048;-60
2022/07/26 07:06:52;;;;;;;7.43;3.58;;;18.40;99.90;;;;;;5074463;28;20040;-60
2022/07/26 07:09:20;;;;;;;5.95;3.65;;;18.40;99.90;;;;;;5073124;28;20052;-61
2022/07/26 07:11:48;;;;;;;5.05;3.67;;;18.50;99.90;;;;;;5062942;28;20049;-60
2022/07/26 07:14:24;;;;;;;8.48;4.10;;;18.50;99.90;;;;;;5074215;28;20048;-60
2022/07/26 07:16:51;;;;;;;5.88;3.78;;;18.70;99.90;;;;;;5074179;28;20048;-61
2022/07/26 07:19:17;;;;;;;5.70;3.72;;;18.80;99.90;;;;;;5071753;28;20052;-61
2022/07/26 07:21:44;;;;;;;6.03;3.45;;;18.90;99.90;;;;;;5062288;28;20053;-60
2022/07/26 07:24:11;;;;;;;4.05;2.92;;;19.00;99.90;;;;;;5074031;28;20041;-60
2022/07/26 07:26:38;;;;;;;5.45;3.20;;;19.00;99.90;;;;;;5074002;28;20048;-60
2022/07/26 07:29:05;;;;;;;3.22;2.70;;;19.00;99.90;;;;;;5071121;28;20405;-60
2022/07/26 07:31:31;;;;;;;6.75;2.83;;;19.00;99.90;;;;;;5064939;28;20508;-60
2022/07/26 07:34:15;;;;;;;4.55;2.70;;;19.00;99.90;;;;;;5073786;28;20040;-60
2022/07/26 07:36:41;;;;;;;;;;;19.00;99.90;;;;;;5074312;28;20045;-61
2022/07/26 07:39:09;;;;;;;5.80;3.20;;;19.00;99.90;;;;;;5062856;28;20484;-61
2022/07/26 07:41:46;;;;;;;6.15;3.08;;;19.10;99.90;;;;;;5069692;28;20044;-61
2022/07/26 07:44:14;;;;;;;4.32;2.70;;;19.20;99.90;;;;;;5073545;28;20063;-61
2022/07/26 07:46:40;;;;;;;;;;;19.20;99.90;;;;;;5070728;28;20052;-61
2022/07/26 07:49:09;;;;;;;3.58;2.72;;;19.30;99.90;;;;;;5065144;28;19924;-60
2022/07/26 07:51:36;;;;;;;3.90;2.78;;;19.40;99.90;;;;;;5072956;28;20504;-62
2022/07/26 07:54:03;;;;;;;4.57;3.10;;;19.50;99.90;;;;;;5073445;28;20055;-61
2022/07/26 07:56:32;;;;;;;4.93;2.72;;;19.60;99.90;;;;;;5068429;28;20098;-60
2022/07/26 07:58:59;;;;;;;7.38;3.20;;;19.70;99.90;;;;;;5064030;28;20045;-61
2022/07/26 08:01:26;;;;;;;4.80;3.13;;;19.90;99.90;;;;;;5072584;28;20083;-61
2022/07/26 08:04:06;;;;;;;7.80;3.03;;;20.00;99.90;;;;;;5069886;28;20148;-61
2022/07/26 08:06:33;;;;;;;7.05;3.20;;;20.00;99.90;;;;;;5061258;28;20032;-61
2022/07/26 08:09:00;;;;;;;6.57;3.30;;;20.10;99.90;;;;;;5072097;28;20048;-61
2022/07/26 08:11:29;;;;;;;3.85;2.45;;;20.20;99.90;;;;;;5072498;28;20568;-61
2022/07/26 08:13:59;;;;;;;5.50;3.08;;;20.30;99.90;;;;;;5065990;28;20464;-62
2022/07/26 08:16:26;;;;;;;5.18;2.90;;;20.40;99.90;;;;;;5067587;28;20040;-61
2022/07/26 08:18:53;;;;;;;7.78;3.33;;;20.20;99.90;;;;;;5072975;28;20075;-62
2022/07/26 08:21:24;;;;;;;4.57;3.00;;;20.30;99.90;;;;;;5069350;28;20048;-61
2022/07/26 08:23:55;;;;;;;5.47;3.33;;;20.50;99.90;;;;;;5062832;28;20041;-61
2022/07/26 08:26:21;;;;;;;;;;;20.70;99.90;;;;;;5073180;28;20048;-61
2022/07/26 08:28:48;;;;;;;4.15;2.75;;;21.00;99.90;;;;;;5072733;28;19928;-62
2022/07/26 08:31:27;;;;;;;4.72;2.88;;;21.20;99.90;;;;;;5065971;28;20451;-61
2022/07/26 08:33:54;;;;;;;3.97;2.88;;;21.50;99.90;;;;;;5062525;28;20049;-62
2022/07/26 08:36:21;;;;;;;6.57;2.53;;;21.80;99.90;;;;;;5072519;28;20043;-61
2022/07/26 08:38:48;;;;;;;;;;;21.60;99.90;;;;;;5072958;28;20158;-61
2022/07/26 08:41:18;;;;;;;4.43;2.90;;;21.70;99.90;;;;;;5066997;28;19924;-61
2022/07/26 08:43:45;;;;;;;6.45;3.45;;;21.80;99.90;;;;;;5064116;28;20041;-61
2022/07/26 08:46:23;;;;;;;5.55;3.20;;;21.80;99.90;;;;;;5072165;28;20047;-61
2022/07/26 08:48:55;;;;;;;5.28;3.08;;;21.70;99.90;;;;;;5067739;28;20064;-61
2022/07/26 08:51:23;;;;;;;7.38;3.42;;;21.60;99.90;;;;;;5063555;28;20115;-61
2022/07/26 08:53:58;;;;;;;4.43;3.05;;;21.70;99.90;;;;;;5072151;28;20044;-61
2022/07/26 08:56:33;;;;;;;4.60;3.22;;;22.00;99.90;;;;;;5070763;28;20493;-61
2022/07/26 08:59:11;;;;;;;3.42;2.50;;;21.80;99.90;;;;;;5062947;28;20048;-61
2022/07/26 09:01:52;;;;;;;6.85;3.38;;;21.60;99.90;;;;;;5071756;28;20056;-61
2022/07/26 09:04:22;;;;;;;6.50;2.92;;;21.90;99.90;;;;;;5072006;28;20048;-61
2022/07/26 09:07:12;;;;;;;6.80;3.17;;;22.50;99.90;;;;;;5068868;28;20033;-61
2022/07/26 09:09:59;;;;;;;6.35;3.08;;;22.80;99.90;;;;;;5063305;28;20036;-61
2022/07/26 09:12:28;;;;;;;6.05;3.28;;;23.00;99.90;;;;;;5072038;28;20038;-61
2022/07/26 09:14:56;;;;;;;6.90;3.42;;;23.20;99.90;;;;;;5066638;28;20497;-61
2022/07/26 09:17:36;;;;;;;4.18;2.80;;;23.20;99.90;;;;;;5063243;28;20052;-61
2022/07/26 09:20:30;;;;;;;3.92;2.97;;;23.30;99.90;;;;;;5071331;28;20110;-61
2022/07/26 09:23:02;;;;;;;4.68;3.08;;;22.70;99.90;;;;;;5060383;28;20064;-62
2022/07/26 09:25:35;;;;;;;6.00;3.15;;;22.30;99.90;;;;;;5063194;28;20505;-61
2022/07/26 09:28:03;;;;;;;5.20;3.25;;;22.10;99.90;;;;;;5071732;28;20049;-61
2022/07/26 09:30:31;;;;;;;5.45;3.38;;;22.30;99.90;;;;;;5067124;28;20489;-61
2022/07/26 09:33:06;;;;;;;4.60;3.30;;;22.70;99.90;;;;;;5063267;28;20041;-62
2022/07/26 09:35:36;;;;;;;7.97;3.60;;;22.90;99.90;;;;;;5071556;28;20056;-62
2022/07/26 09:38:17;;;;;;;4.60;3.20;;;23.20;99.90;;;;;;5071640;28;20124;-61
2022/07/26 09:40:44;;;;;;;5.80;2.97;;;23.50;99.90;;;;;;5066106;28;20052;-61
2022/07/26 09:43:17;;;;;;;4.35;2.85;;;23.80;99.90;;;;;;5064820;28;20052;-62
2022/07/26 09:46:03;;;;;;;5.50;2.90;;;24.10;99.90;;;;;;5071444;28;20044;-61
2022/07/26 09:48:31;;;;;;;5.50;2.83;;;24.60;99.90;;;;;;5069126;28;20060;-60
2022/07/26 09:51:40;;;;;;;5.25;2.95;;;24.90;99.90;;;;;;5059226;28;20049;-61
2022/07/26 09:54:09;;;;;;;5.10;2.67;;;24.50;99.90;;;;;;5051205;28;20045;-61
2022/07/26 09:56:46;;;;;;;3.78;2.85;;;24.10;99.90;;;;;;5033926;28;20115;-61
2022/07/26 09:59:21;;;;;;;9.40;3.13;;;24.10;99.90;;;;;;5059544;28;20043;-61
2022/07/26 10:01:50;;;;;;;5.20;2.55;;;23.70;99.90;;;;;;5050679;28;20123;-60
2022/07/26 10:04:18;;;;;;;3.55;2.45;;;23.80;99.90;;;;;;5051217;28;20080;-60
2022/07/26 10:06:45;;;;;;;4.07;2.42;;;23.70;99.90;;;;;;5058936;28;20052;-61
2022/07/26 10:09:12;;;;;;;;;;;23.40;99.90;;;;;;5064186;28;20037;-61
2022/07/26 10:11:48;;;;;;;2.33;1.67;;;23.20;99.90;;;;;;5070547;28;19925;-60
2022/07/26 10:14:37;;;;;;;5.03;2.15;;;23.00;99.90;;;;;;5071507;28;20481;-61
2022/07/26 10:17:26;;;;;;;2.67;2.17;;;23.10;99.90;;;;;;5060635;28;20401;-61
2022/07/26 10:20:02;;;;;;;5.65;2.55;;;23.40;99.90;;;;;;5069143;28;20044;-61
2022/07/26 10:22:39;;;;;;;5.22;2.00;;;23.20;99.90;;;;;;5071135;28;20041;-61
2022/07/26 10:25:17;;;;;;;3.93;2.50;;;23.30;99.90;;;;;;5052744;28;20408;-61
2022/07/26 10:27:46;;;;;;;3.38;2.20;;;23.60;99.90;;;;;;5062548;28;20124;-60
2022/07/26 10:38:25;;;;;;;5.47;2.97;;;24.00;99.90;;;;;;5023798;28;20417;-67
2022/07/26 10:41:10;;;;;;;5.18;2.63;;;23.70;99.90;;;;;;5034174;28;20037;-67
2022/07/26 10:43:37;;;;;;;3.05;2.30;;;23.30;99.90;;;;;;5034947;28;20062;-67
2022/07/26 10:46:17;;;;;;;4.32;2.45;;;23.10;99.90;;;;;;5025734;28;20037;-67
2022/07/26 10:49:07;;;;;;;4.63;3.10;;;22.90;99.90;;;;;;5013638;28;20050;-67
2022/07/26 10:51:37;;;;;;;4.03;2.97;;;22.70;99.90;;;;;;5010316;28;20042;-67
2022/07/26 10:54:14;;;;;;;6.00;2.83;;;22.70;99.90;;;;;;5017630;28;20124;-67
2022/07/26 10:56:41;;;;;;;5.38;2.65;;;22.70;99.90;;;;;;5034662;28;20045;-67
2022/07/26 10:59:08;;;;;;;4.93;3.13;;;22.70;99.90;;;;;;5034671;28;20464;-67
2022/07/26 11:01:38;;;;;;;4.75;2.97;;;22.90;99.90;;;;;;5034209;28;20045;-67
2022/07/26 11:04:25;;;;;;;5.55;3.03;;;23.30;99.90;;;;;;5027315;28;20047;-67
2022/07/26 11:06:58;;;;;;;4.00;3.08;;;23.50;99.90;;;;;;5034236;28;20096;-67
2022/07/26 11:09:33;;;;;;;5.28;3.22;;;23.80;99.90;;;;;;5034826;28;20099;-67
2022/07/26 11:12:20;;;;;;;4.35;2.88;;;23.60;99.90;;;;;;5027170;28;20038;-67
2022/07/26 11:14:47;;;;;;;4.40;2.72;;;23.60;99.90;;;;;;5034212;28;20045;-68
2022/07/26 11:17:25;;;;;;;5.43;2.83;;;23.70;99.90;;;;;;5034506;28;20041;-67
2022/07/26 11:19:52;;;;;;;5.10;2.97;;;23.50;99.90;;;;;;5031240;28;20041;-67
2022/07/26 11:22:20;;;;;;;4.38;2.88;;;23.10;99.90;;;;;;5027524;28;20042;-67
2022/07/26 11:24:46;;;;;;;4.15;3.08;;;22.70;99.90;;;;;;5033862;28;20045;-67
2022/07/26 11:27:13;;;;;;;5.60;3.35;;;22.50;99.90;;;;;;5034156;28;20041;-67
2022/07/26 11:29:40;;;;;;;5.30;2.75;;;22.20;99.90;;;;;;5025248;28;20046;-67
2022/07/26 11:32:23;;;;;;;3.78;2.58;;;22.20;99.90;;;;;;5048116;28;20126;-67
2022/07/26 11:34:58;;;;;;;3.13;2.40;;;22.30;99.90;;;;;;5053803;28;20044;-67
2022/07/26 11:37:26;;;;;;;5.13;2.78;;;22.30;99.90;;;;;;5049442;28;20060;-67
2022/07/26 11:39:52;;;;;;;;;;;22.20;99.90;;;;;;5053519;28;20383;-67
2022/07/26 11:42:20;;;;;;;4.82;3.10;;;22.10;99.90;;;;;;5053441;28;19921;-67
2022/07/26 11:44:48;;;;;;;6.03;3.17;;;22.20;99.90;;;;;;5053709;28;20055;-67
2022/07/26 11:47:20;;;;;;;3.70;2.38;;;22.20;99.90;;;;;;5046075;28;20389;-68
2022/07/26 11:49:51;;;;;;;4.28;2.50;;;22.40;99.90;;;;;;5053387;28;20072;-68
2022/07/26 11:52:38;;;;;;;3.40;2.65;;;22.90;99.90;;;;;;5053442;28;20049;-67
2022/07/26 11:55:06;;;;;;;4.15;2.63;;;23.40;99.90;;;;;;5051363;28;20052;-67
2022/07/26 11:57:32;;;;;;;3.20;2.50;;;23.60;99.90;;;;;;5053120;28;20507;-67
2022/07/26 11:59:59;;;;;;;4.57;2.55;;;23.50;99.90;;;;;;5052930;28;20048;-67
2022/07/26 12:02:37;;;;;;;3.75;2.42;;;23.40;99.90;;;;;;5051133;28;20052;-67
2022/07/26 12:05:21;;;;;;;4.63;2.55;;;23.10;99.90;;;;;;5052966;28;20041;-67
2022/07/26 12:08:03;;;;;;;2.67;2.05;;;22.80;99.90;;;;;;5053217;28;20116;-67
2022/07/26 12:10:30;;;;;;;2.88;2.20;;;22.40;99.90;;;;;;5052259;28;20124;-66
2022/07/26 12:13:11;;;;;;;3.22;2.33;;;22.30;99.90;;;;;;5048846;28;20052;-67
2022/07/26 12:15:49;;;;;;;5.90;2.40;;;22.20;99.90;;;;;;5053085;28;20055;-67
2022/07/26 12:18:25;;;;;;;5.75;2.20;;;22.30;99.90;;;;;;5051898;28;20056;-67
2022/07/26 12:21:03;;;;;;;4.05;2.25;;;22.50;99.90;;;;;;5049144;28;20194;-67
2022/07/26 12:23:40;;;;;;;2.95;2.33;;;22.70;99.90;;;;;;5052960;28;20386;-67
2022/07/26 12:26:29;;;;;;;5.10;2.38;;;22.90;99.90;;;;;;5052783;28;20458;-67
2022/07/26 12:28:58;;;;;;;3.92;2.75;;;23.00;99.90;;;;;;5052892;28;20520;-67
2022/07/26 12:31:31;;;;;;;5.75;2.55;;;23.00;99.90;;;;;;5039581;28;20064;-67
2022/07/26 12:33:58;;;;;;;2.50;2.13;;;23.00;99.90;;;;;;5052722;28;20055;-67
2022/07/26 12:36:25;;;;;;;3.25;1.95;;;23.00;99.90;;;;;;5052669;28;20382;-67
2022/07/26 12:38:59;;;;;;;3.42;2.15;;;23.00;99.90;;;;;;5050110;28;20045;-67
2022/07/26 12:41:37;;;;;;;4.90;2.22;;;22.90;99.90;;;;;;5041253;28;20052;-67
2022/07/26 12:44:05;;;;;;;;;;;23.00;99.90;;;;;;5052835;28;20528;-67
2022/07/26 12:46:33;;;;;;;3.00;2.20;;;22.90;99.90;;;;;;5052399;28;19921;-67
2022/07/26 12:49:00;;;;;;;4.68;2.58;;;22.80;99.90;;;;;;5044851;28;20855;-67
2022/07/26 12:51:27;;;;;;;4.97;2.50;;;22.70;99.90;;;;;;5051800;28;20055;-67
2022/07/26 12:53:54;;;;;;;4.07;2.50;;;22.70;99.90;;;;;;5052437;28;20490;-67
2022/07/26 12:56:20;;;;;;;5.10;2.70;;;22.80;99.90;;;;;;5038410;28;20531;-67
2022/07/26 12:58:47;;;;;;;5.72;2.70;;;22.80;99.90;;;;;;5051677;28;20052;-67
2022/07/26 13:01:14;;;;;;;4.60;2.20;;;22.80;99.90;;;;;;5051778;28;20107;-67
2022/07/26 13:03:41;;;;;;;3.75;1.80;;;22.70;99.90;;;;;;5051943;28;20505;-67
2022/07/26 13:06:07;;;;;;;5.05;2.55;;;22.80;99.90;;;;;;5044229;28;20045;-67
2022/07/26 13:08:34;;;;;;;5.43;2.50;;;22.80;99.90;;;;;;5051924;28;20048;-67
2022/07/26 13:11:01;;;;;;;4.38;2.00;;;22.90;99.90;;;;;;5051969;28;20103;-67